Time;durP1;ratioP1;P1;durP2;ratioP2;P2;SDS_P1;SDS_P2;PMS_P1;PMS_P2;Temp;Humidity;BMP_temperature;BMP_pressure;BME280_temperature;BME280_humidity;BME280_pressure;Samples;Min_cycle;Max_cycle;Signal;HPM_P1;HPM_P2
2021/07/11 00:01:07;;;;;;;5.45;3.17;;;;;;;;;;6229196;23;20175;-90
2021/07/11 00:04:12;;;;;;;6.30;2.70;;;;;;;;;;6228732;22;20264;-90
2021/07/11 00:07:18;;;;;;;6.38;2.50;;;;;;;;;;6229143;22;20171;-91
2021/07/11 00:10:24;;;;;;;4.75;2.58;;;;;;;;;;6227534;22;20193;-91
2021/07/11 00:13:29;;;;;;;4.80;2.47;;;;;;;;;;6224992;23;20167;-91
2021/07/11 00:16:37;;;;;;;6.00;2.38;;;;;;;;;;6225532;23;20150;-90
2021/07/11 00:19:41;;;;;;;5.57;2.38;;;;;;;;;;6225933;22;20170;-90
2021/07/11 00:22:47;;;;;;;5.57;2.30;;;;;;;;;;6243785;22;20182;-90
2021/07/11 00:25:54;;;;;;;6.13;2.38;;;;;;;;;;6226355;23;20174;-90
2021/07/11 00:28:59;;;;;;;4.50;2.47;;;;;;;;;;6228575;23;20514;-90
2021/07/11 00:32:04;;;;;;;6.32;1.92;;;;;;;;;;6228051;22;20167;-90
2021/07/11 00:35:10;;;;;;;3.15;2.08;;;;;;;;;;6227063;22;20183;-90
2021/07/11 00:38:14;;;;;;;2.85;2.15;;;;;;;;;;6227630;22;20194;-91
2021/07/11 00:41:21;;;;;;;4.65;2.17;;;;;;;;;;6227973;23;20218;-91
2021/07/11 00:44:26;;;;;;;1.80;1.65;;;;;;;;;;6227072;23;20154;-90
2021/07/11 00:47:31;;;;;;;3.33;1.92;;;;;;;;;;6226434;22;20170;-90
2021/07/11 00:50:36;;;;;;;5.03;1.92;;;;;;;;;;6226775;23;20194;-91
2021/07/11 00:53:53;;;;;;;6.10;1.90;;;;;;;;;;6228415;22;20167;-91
2021/07/11 00:57:02;;;;;;;7.15;2.00;;;;;;;;;;6228029;23;20163;-91
2021/07/11 01:00:09;;;;;;;5.25;1.90;;;;;;;;;;6228953;22;20190;-90
2021/07/11 01:03:29;;;;;;;2.75;1.98;;;;;;;;;;6229620;22;20159;-89
2021/07/11 01:06:37;;;;;;;5.78;2.13;;;;;;;;;;6228680;22;20168;-91
2021/07/11 01:09:44;;;;;;;3.78;1.90;;;;;;;;;;6228242;23;20187;-90
2021/07/11 01:12:55;;;;;;;8.25;2.00;;;;;;;;;;6229106;23;20166;-92
2021/07/11 01:16:02;;;;;;;4.95;2.70;;;;;;;;;;6227143;23;20183;-90
2021/07/11 01:19:09;;;;;;;7.65;2.22;;;;;;;;;;6228975;23;20155;-90
2021/07/11 01:22:16;;;;;;;3.75;2.47;;;;;;;;;;6228378;23;20498;-91
2021/07/11 01:25:29;;;;;;;2.00;1.80;;;;;;;;;;6229575;23;20507;-90
2021/07/11 01:28:35;;;;;;;3.78;2.05;;;;;;;;;;6227966;23;20501;-91
2021/07/11 01:31:42;;;;;;;3.30;2.47;;;;;;;;;;6226712;23;20232;-90
2021/07/11 01:34:49;;;;;;;4.05;2.63;;;;;;;;;;6228739;23;20167;-91
2021/07/11 01:37:55;;;;;;;6.20;2.40;;;;;;;;;;6227320;22;20502;-90
2021/07/11 01:41:02;;;;;;;4.75;2.10;;;;;;;;;;6226567;23;20187;-90
2021/07/11 01:44:11;;;;;;;3.72;2.00;;;;;;;;;;6227535;23;20163;-90
2021/07/11 01:47:17;;;;;;;5.07;2.33;;;;;;;;;;6226004;23;20178;-89
2021/07/11 01:50:23;;;;;;;7.65;1.88;;;;;;;;;;6227777;22;20198;-90
2021/07/11 01:53:33;;;;;;;6.43;2.17;;;;;;;;;;6227394;22;20170;-90
2021/07/11 01:56:40;;;;;;;3.50;2.10;;;;;;;;;;6229376;22;20611;-89
2021/07/11 01:59:49;;;;;;;4.18;2.13;;;;;;;;;;6227257;23;20203;-90
2021/07/11 02:03:22;;;;;;;5.55;2.90;;;;;;;;;;6229961;23;20163;-90
2021/07/11 02:06:42;;;;;;;3.20;2.20;;;;;;;;;;6228230;23;20159;-90
2021/07/11 02:09:56;;;;;;;3.78;2.33;;;;;;;;;;6226386;22;20219;-91
2021/07/11 02:13:08;;;;;;;7.72;2.47;;;;;;;;;;6244772;23;20302;-91
2021/07/11 02:16:21;;;;;;;3.40;2.00;;;;;;;;;;6226115;22;20167;-91
2021/07/11 02:19:31;;;;;;;3.25;2.38;;;;;;;;;;6226508;23;20284;-90
2021/07/11 02:22:37;;;;;;;5.05;2.20;;;;;;;;;;6224963;23;20167;-92
2021/07/11 02:25:43;;;;;;;3.92;2.60;;;;;;;;;;6224979;23;20669;-89
2021/07/11 02:28:50;;;;;;;3.78;2.63;;;;;;;;;;6226772;23;20171;-90
2021/07/11 02:31:55;;;;;;;8.45;3.05;;;;;;;;;;6227005;22;20253;-90
2021/07/11 02:35:02;;;;;;;5.50;2.13;;;;;;;;;;6226127;22;20167;-91
2021/07/11 02:38:11;;;;;;;3.72;2.30;;;;;;;;;;6229521;22;20150;-89
2021/07/11 02:41:19;;;;;;;6.85;2.78;;;;;;;;;;6228999;22;20188;-91
2021/07/11 02:44:27;;;;;;;4.22;2.50;;;;;;;;;;6229159;22;20258;-89
2021/07/11 02:47:34;;;;;;;3.63;2.58;;;;;;;;;;6229495;23;20489;-90
2021/07/11 02:50:41;;;;;;;7.32;2.47;;;;;;;;;;6228476;22;20211;-89
2021/07/11 02:53:49;;;;;;;3.70;2.53;;;;;;;;;;6228922;23;20254;-90
2021/07/11 02:56:57;;;;;;;6.80;3.20;;;;;;;;;;6229607;22;20164;-90
2021/07/11 03:00:06;;;;;;;6.45;3.25;;;;;;;;;;6229608;23;20290;-90
2021/07/11 03:03:18;;;;;;;3.85;2.88;;;;;;;;;;6229318;23;20191;-90
2021/07/11 03:06:33;;;;;;;5.32;3.17;;;;;;;;;;6229374;22;20172;-90
2021/07/11 03:09:41;;;;;;;6.65;3.30;;;;;;;;;;6230162;22;20238;-91
2021/07/11 03:12:49;;;;;;;4.57;2.80;;;;;;;;;;6228661;22;20174;-89
2021/07/11 03:15:57;;;;;;;5.82;3.40;;;;;;;;;;6229065;23;20550;-89
2021/07/11 03:19:03;;;;;;;7.40;3.33;;;;;;;;;;6229858;23;20221;-89
2021/07/11 03:22:11;;;;;;;4.93;3.10;;;;;;;;;;6228903;22;20658;-90
2021/07/11 03:25:17;;;;;;;6.82;3.38;;;;;;;;;;6228708;23;20166;-89
2021/07/11 03:28:23;;;;;;;5.30;3.08;;;;;;;;;;6230460;23;20158;-90
2021/07/11 03:31:30;;;;;;;8.50;3.05;;;;;;;;;;6227373;23;20632;-89
2021/07/11 03:34:35;;;;;;;6.72;2.95;;;;;;;;;;6229704;23;20151;-89
2021/07/11 03:37:50;;;;;;;5.20;3.20;;;;;;;;;;6228859;23;20730;-90
2021/07/11 03:40:56;;;;;;;5.32;3.05;;;;;;;;;;6227198;22;20171;-91
2021/07/11 03:44:04;;;;;;;3.80;2.90;;;;;;;;;;6228105;23;20166;-89
2021/07/11 03:47:10;;;;;;;5.65;3.30;;;;;;;;;;6228200;23;20246;-90
2021/07/11 03:50:17;;;;;;;4.13;2.78;;;;;;;;;;6228304;22;20194;-91
2021/07/11 03:53:23;;;;;;;4.25;3.05;;;;;;;;;;6227327;22;20167;-88
2021/07/11 03:56:29;;;;;;;4.88;3.10;;;;;;;;;;6225053;22;20171;-89
2021/07/11 03:59:35;;;;;;;4.32;2.90;;;;;;;;;;6226243;23;20167;-89
2021/07/11 04:02:47;;;;;;;7.57;3.28;;;;;;;;;;6226816;22;20246;-89
2021/07/11 04:05:52;;;;;;;4.10;2.90;;;;;;;;;;6227328;22;20175;-88
2021/07/11 04:08:59;;;;;;;7.20;3.00;;;;;;;;;;6226589;22;20550;-90
2021/07/11 04:12:04;;;;;;;4.45;2.67;;;;;;;;;;6226664;22;20214;-91
2021/07/11 04:15:09;;;;;;;4.30;2.78;;;;;;;;;;6226985;22;20241;-90
2021/07/11 04:18:17;;;;;;;3.88;2.65;;;;;;;;;;6226582;23;20171;-90
2021/07/11 04:21:22;;;;;;;6.57;2.67;;;;;;;;;;6226450;22;20594;-90
2021/07/11 04:24:27;;;;;;;3.50;2.33;;;;;;;;;;6226275;23;20166;-89
2021/07/11 04:27:32;;;;;;;3.47;2.60;;;;;;;;;;6226294;23;20183;-90
2021/07/11 04:30:38;;;;;;;6.22;2.50;;;;;;;;;;6226937;23;20175;-90
2021/07/11 04:33:46;;;;;;;4.60;2.40;;;;;;;;;;6228833;22;20251;-89
2021/07/11 04:36:52;;;;;;;3.67;2.40;;;;;;;;;;6226865;23;20163;-90
2021/07/11 04:39:57;;;;;;;3.03;2.20;;;;;;;;;;6226235;22;20155;-90
2021/07/11 04:43:02;;;;;;;4.03;2.22;;;;;;;;;;6226516;23;20179;-90
2021/07/11 04:46:07;;;;;;;3.75;2.50;;;;;;;;;;6227668;22;20170;-90
2021/07/11 04:49:13;;;;;;;3.33;2.20;;;;;;;;;;6226954;22;20242;-90
2021/07/11 04:52:18;;;;;;;2.47;1.98;;;;;;;;;;6226294;22;20211;-89
2021/07/11 04:55:23;;;;;;;4.47;2.40;;;;;;;;;;6225963;23;20163;-88
2021/07/11 04:58:54;;;;;;;2.95;2.20;;;;;;;;;;6226486;22;20171;-88
2021/07/11 05:01:59;;;;;;;9.77;3.03;;;;;;;;;;6227251;22;20219;-89
2021/07/11 05:05:07;;;;;;;5.90;2.35;;;;;;;;;;6226421;23;20630;-90
2021/07/11 05:08:12;;;;;;;3.67;2.30;;;;;;;;;;6226581;23;20207;-90
2021/07/11 05:11:17;;;;;;;4.70;1.95;;;;;;;;;;6226040;23;20195;-89
2021/07/11 05:14:22;;;;;;;3.15;2.20;;;;;;;;;;6229402;22;20589;-90
2021/07/11 05:17:27;;;;;;;5.47;1.88;;;;;;;;;;6228718;23;20611;-91
2021/07/11 05:20:34;;;;;;;2.92;2.10;;;;;;;;;;6229012;23;20172;-90
2021/07/11 05:23:39;;;;;;;5.20;1.80;;;;;;;;;;6228392;22;20183;-91
2021/07/11 05:26:44;;;;;;;3.47;2.08;;;;;;;;;;6227879;23;20191;-90
2021/07/11 05:29:49;;;;;;;1.95;1.70;;;;;;;;;;6228619;22;20283;-90
2021/07/11 05:32:54;;;;;;;2.03;1.50;;;;;;;;;;6228976;23;20170;-89
2021/07/11 05:36:01;;;;;;;2.65;1.75;;;;;;;;;;6229382;22;20171;-90
2021/07/11 05:39:07;;;;;;;2.78;1.67;;;;;;;;;;6228900;23;20211;-90
2021/07/11 05:42:12;;;;;;;2.13;1.60;;;;;;;;;;6227158;23;20179;-89
2021/07/11 05:45:18;;;;;;;4.53;1.70;;;;;;;;;;6225469;22;20163;-90
2021/07/11 05:48:23;;;;;;;3.80;1.85;;;;;;;;;;6226829;23;20226;-89
2021/07/11 05:51:29;;;;;;;4.55;1.70;;;;;;;;;;6226741;22;20338;-90
2021/07/11 05:54:34;;;;;;;2.95;1.52;;;;;;;;;;6227120;22;20286;-89
2021/07/11 05:57:39;;;;;;;5.53;1.70;;;;;;;;;;6226286;23;20159;-89
2021/07/11 06:00:44;;;;;;;2.95;1.63;;;;;;;;;;6227629;22;20157;-90
2021/07/11 06:03:50;;;;;;;3.35;1.50;;;;;;;;;;6228051;22;20167;-90
2021/07/11 06:06:56;;;;;;;2.08;1.70;;;;;;;;;;6227528;22;20557;-90
2021/07/11 06:10:01;;;;;;;3.20;1.90;;;;;;;;;;6228418;23;20163;-90
2021/07/11 06:13:07;;;;;;;2.08;1.55;;;;;;;;;;6228011;23;20199;-90
2021/07/11 06:16:12;;;;;;;3.63;1.60;;;;;;;;;;6230458;23;20755;-89
2021/07/11 06:19:17;;;;;;;2.88;1.60;;;;;;;;;;6229983;22;20167;-91
2021/07/11 06:22:24;;;;;;;2.65;1.60;;;;;;;;;;6231203;23;20171;-90
2021/07/11 06:25:30;;;;;;;5.40;1.60;;;;;;;;;;6229842;23;20163;-90
2021/07/11 06:28:34;;;;;;;3.47;1.65;;;;;;;;;;6230239;22;20191;-91
2021/07/11 06:31:40;;;;;;;2.45;1.80;;;;;;;;;;6227385;23;20195;-89
2021/07/11 06:34:45;;;;;;;3.03;1.70;;;;;;;;;;6228398;23;20171;-90
2021/07/11 06:37:52;;;;;;;2.50;2.08;;;;;;;;;;6228907;23;20183;-89
2021/07/11 06:40:57;;;;;;;6.22;1.60;;;;;;;;;;6226839;22;20179;-90
2021/07/11 06:44:01;;;;;;;2.83;1.60;;;;;;;;;;6227673;23;20191;-91
2021/07/11 06:47:08;;;;;;;3.45;1.60;;;;;;;;;;6226747;22;20491;-90
2021/07/11 06:50:14;;;;;;;5.38;2.00;;;;;;;;;;6227342;23;20166;-89
2021/07/11 06:53:21;;;;;;;5.18;1.65;;;;;;;;;;6227873;22;20171;-90
2021/07/11 06:56:25;;;;;;;3.30;1.60;;;;;;;;;;6229410;23;20630;-90
2021/07/11 06:59:30;;;;;;;2.92;1.65;;;;;;;;;;6228269;23;20166;-90
2021/07/11 07:02:35;;;;;;;2.13;1.40;;;;;;;;;;6230521;22;20166;-90
2021/07/11 07:05:40;;;;;;;5.18;1.92;;;;;;;;;;6228052;22;20626;-90
2021/07/11 07:08:47;;;;;;;7.38;1.70;;;;;;;;;;6229625;22;20253;-91
2021/07/11 07:11:52;;;;;;;3.17;2.10;;;;;;;;;;6245679;23;20187;-90
2021/07/11 07:14:57;;;;;;;4.55;1.60;;;;;;;;;;6227560;22;20210;-91
2021/07/11 07:18:02;;;;;;;3.22;1.50;;;;;;;;;;6227172;23;20199;-91
2021/07/11 07:21:07;;;;;;;5.03;1.90;;;;;;;;;;6227635;22;20218;-89
2021/07/11 07:24:14;;;;;;;2.63;1.58;;;;;;;;;;6227307;22;20151;-90
2021/07/11 07:27:18;;;;;;;5.13;1.52;;;;;;;;;;6229643;23;20246;-90
2021/07/11 07:30:24;;;;;;;7.07;1.65;;;;;;;;;;6228195;23;20171;-90
2021/07/11 07:33:29;;;;;;;4.05;1.65;;;;;;;;;;6227348;22;20170;-90
2021/07/11 07:36:36;;;;;;;4.18;1.63;;;;;;;;;;6227590;22;20194;-90
2021/07/11 07:39:43;;;;;;;2.25;1.60;;;;;;;;;;6225648;22;20175;-91
2021/07/11 07:42:48;;;;;;;3.17;1.55;;;;;;;;;;6227020;22;20175;-91
2021/07/11 07:45:54;;;;;;;2.75;1.60;;;;;;;;;;6228552;22;20219;-91
2021/07/11 07:48:59;;;;;;;3.47;1.50;;;;;;;;;;6228946;23;20626;-91
2021/07/11 07:52:05;;;;;;;3.08;1.45;;;;;;;;;;6229227;23;20214;-91
2021/07/11 07:55:12;;;;;;;5.28;1.55;;;;;;;;;;6229180;22;20166;-90
2021/07/11 07:58:17;;;;;;;3.33;1.35;;;;;;;;;;6230341;23;20167;-91
2021/07/11 08:01:22;;;;;;;3.13;1.60;;;;;;;;;;6228855;23;20175;-90
2021/07/11 08:04:27;;;;;;;4.38;1.83;;;;;;;;;;6228889;22;20216;-89
2021/07/11 08:07:32;;;;;;;2.25;1.50;;;;;;;;;;6229544;23;20190;-91
2021/07/11 08:10:40;;;;;;;3.58;1.60;;;;;;;;;;6229134;22;20603;-91
2021/07/11 08:13:45;;;;;;;2.67;1.50;;;;;;;;;;6229039;22;20146;-90
2021/07/11 08:16:50;;;;;;;3.38;1.55;;;;;;;;;;6230821;22;20168;-91
2021/07/11 08:19:56;;;;;;;3.90;1.40;;;;;;;;;;6229427;22;20224;-91
2021/07/11 08:23:01;;;;;;;3.95;1.50;;;;;;;;;;6229791;22;20234;-91
2021/07/11 08:26:08;;;;;;;2.65;1.35;;;;;;;;;;6231569;23;20253;-91
2021/07/11 08:29:13;;;;;;;3.83;1.58;;;;;;;;;;6229736;22;20654;-91
2021/07/11 08:32:18;;;;;;;2.17;1.30;;;;;;;;;;6229163;23;20243;-90
2021/07/11 08:35:23;;;;;;;2.88;1.50;;;;;;;;;;6229412;22;20174;-91
2021/07/11 08:38:29;;;;;;;4.72;1.58;;;;;;;;;;6230697;23;20223;-91
2021/07/11 08:41:36;;;;;;;2.40;1.73;;;;;;;;;;6231599;22;20175;-90
2021/07/11 08:44:41;;;;;;;7.80;1.50;;;;;;;;;;6229619;23;20167;-89
2021/07/11 08:47:47;;;;;;;3.40;1.60;;;;;;;;;;6232371;23;20163;-91
2021/07/11 08:50:55;;;;;;;1.95;1.50;;;;;;;;;;6233302;22;20174;-90
2021/07/11 08:54:00;;;;;;;4.90;1.80;;;;;;;;;;6233517;22;20626;-91
2021/07/11 08:57:09;;;;;;;3.40;1.70;;;;;;;;;;6233164;23;20249;-90
2021/07/11 09:00:14;;;;;;;1.73;1.42;;;;;;;;;;6230963;23;20163;-92
2021/07/11 09:03:19;;;;;;;2.42;1.73;;;;;;;;;;6233344;22;20167;-89
2021/07/11 09:06:24;;;;;;;2.47;1.50;;;;;;;;;;6230961;23;20186;-90
2021/07/11 09:09:30;;;;;;;9.10;1.40;;;;;;;;;;6231609;23;20155;-91
2021/07/11 09:12:37;;;;;;;3.38;1.30;;;;;;;;;;6230325;22;20650;-91
2021/07/11 09:15:45;;;;;;;2.30;1.30;;;;;;;;;;6232148;23;20212;-91
2021/07/11 09:18:53;;;;;;;2.25;1.17;;;;;;;;;;6230860;23;20219;-91
2021/07/11 09:22:01;;;;;;;4.38;1.42;;;;;;;;;;6230772;22;20242;-91
2021/07/11 09:25:07;;;;;;;3.05;1.55;;;;;;;;;;6231146;23;20241;-91
2021/07/11 09:28:15;;;;;;;4.07;1.70;;;;;;;;;;6231258;23;20226;-91
2021/07/11 09:31:23;;;;;;;4.20;1.20;;;;;;;;;;6231968;22;20502;-90
2021/07/11 09:34:29;;;;;;;2.30;1.15;;;;;;;;;;6230357;23;20171;-91
2021/07/11 09:37:36;;;;;;;4.55;1.10;;;;;;;;;;6231154;22;20175;-91
2021/07/11 09:40:46;;;;;;;3.53;1.40;;;;;;;;;;6230823;23;20210;-89
2021/07/11 09:43:54;;;;;;;3.50;1.05;;;;;;;;;;6247867;22;20171;-91
2021/07/11 09:46:58;;;;;;;1.67;1.20;;;;;;;;;;6233485;22;20274;-92
2021/07/11 09:50:10;;;;;;;1.75;1.20;;;;;;;;;;6215557;23;20163;-92
2021/07/11 09:53:15;;;;;;;3.00;1.08;;;;;;;;;;6232344;22;20179;-92
2021/07/11 09:56:31;;;;;;;3.35;1.00;;;;;;;;;;6232840;22;20210;-91
2021/07/11 09:59:37;;;;;;;1.60;1.10;;;;;;;;;;6234135;23;20172;-93
2021/07/11 10:02:43;;;;;;;2.28;1.50;;;;;;;;;;6232636;22;20626;-90
2021/07/11 10:05:48;;;;;;;4.53;1.33;;;;;;;;;;6230743;22;20183;-91
2021/07/11 10:08:53;;;;;;;2.55;1.30;;;;;;;;;;6230652;22;20167;-91
2021/07/11 10:11:58;;;;;;;3.50;1.30;;;;;;;;;;6230651;22;20229;-91
2021/07/11 10:15:06;;;;;;;2.15;1.13;;;;;;;;;;6231307;22;20174;-91
2021/07/11 10:18:12;;;;;;;2.17;1.35;;;;;;;;;;6230101;22;20286;-92
2021/07/11 10:21:20;;;;;;;1.40;1.00;;;;;;;;;;6228610;22;20166;-92
2021/07/11 10:24:25;;;;;;;4.95;1.30;;;;;;;;;;6230177;22;20227;-91
2021/07/11 10:27:30;;;;;;;5.78;1.20;;;;;;;;;;6230037;23;20171;-92
2021/07/11 10:30:39;;;;;;;3.63;1.35;;;;;;;;;;6230181;22;20711;-91
2021/07/11 10:33:45;;;;;;;1.92;1.10;;;;;;;;;;6229112;22;20194;-92
2021/07/11 10:36:49;;;;;;;2.33;1.40;;;;;;;;;;6228929;22;20262;-92
2021/07/11 10:40:16;;;;;;;2.65;1.40;;;;;;;;;;6231979;22;20166;-92
2021/07/11 10:43:21;;;;;;;3.65;1.40;;;;;;;;;;6230529;22;20163;-91
2021/07/11 10:46:36;;;;;;;3.60;1.20;;;;;;;;;;6230199;23;20147;-92
2021/07/11 10:49:51;;;;;;;2.55;1.20;;;;;;;;;;6248723;22;20179;-91
2021/07/11 10:52:59;;;;;;;3.72;1.58;;;;;;;;;;6231424;22;21350;-92
2021/07/11 10:56:05;;;;;;;3.95;1.58;;;;;;;;;;6230067;22;20175;-91
2021/07/11 10:59:11;;;;;;;3.80;1.52;;;;;;;;;;6229203;22;20275;-90
2021/07/11 11:02:22;;;;;;;5.43;1.50;;;;;;;;;;6230313;22;20184;-91
2021/07/11 11:05:28;;;;;;;2.20;1.17;;;;;;;;;;6229605;23;20238;-90
2021/07/11 11:08:44;;;;;;;3.10;1.63;;;;;;;;;;6213074;22;20166;-91
2021/07/11 11:11:50;;;;;;;2.63;1.38;;;;;;;;;;6229896;22;20497;-91
2021/07/11 11:14:57;;;;;;;3.95;1.58;;;;;;;;;;6229431;23;20170;-92
2021/07/11 11:18:26;;;;;;;2.55;1.33;;;;;;;;;;6232835;23;20171;-90
2021/07/11 11:21:32;;;;;;;5.07;1.90;;;;;;;;;;6231916;22;20167;-90
2021/07/11 11:24:45;;;;;;;2.40;1.60;;;;;;;;;;6233391;23;20220;-92
2021/07/11 11:27:56;;;;;;;3.03;1.50;;;;;;;;;;6231272;23;20246;-90
2021/07/11 11:31:09;;;;;;;2.78;1.45;;;;;;;;;;6232219;22;20251;-90
2021/07/11 11:34:17;;;;;;;2.78;1.20;;;;;;;;;;6248474;23;20608;-89
2021/07/11 11:37:23;;;;;;;2.47;1.50;;;;;;;;;;6251826;22;20167;-91
2021/07/11 11:43:48;;;;;;;2.03;1.15;;;;;;;;;;6233615;23;20186;-90
2021/07/11 11:46:57;;;;;;;2.30;1.45;;;;;;;;;;6230678;22;20170;-90
2021/07/11 11:50:12;;;;;;;1.90;1.50;;;;;;;;;;6232150;22;20213;-91
2021/07/11 11:53:18;;;;;;;7.07;1.30;;;;;;;;;;6215410;23;20617;-91
2021/07/11 11:56:24;;;;;;;2.05;1.38;;;;;;;;;;6248104;22;20194;-91
2021/07/11 11:59:30;;;;;;;2.75;1.45;;;;;;;;;;6231275;22;20167;-91
2021/07/11 12:02:40;;;;;;;6.30;1.30;;;;;;;;;;6213847;23;20148;-91
2021/07/11 12:05:50;;;;;;;1.77;1.25;;;;;;;;;;6231049;22;20207;-91
2021/07/11 12:08:56;;;;;;;2.00;1.25;;;;;;;;;;6231958;22;20187;-91
2021/07/11 12:12:03;;;;;;;2.90;1.23;;;;;;;;;;6232305;23;20615;-91
2021/07/11 12:15:09;;;;;;;2.25;1.10;;;;;;;;;;6228512;22;20245;-91
2021/07/11 12:18:14;;;;;;;2.63;1.70;;;;;;;;;;6230306;22;20156;-91
2021/07/11 12:21:24;;;;;;;1.92;1.20;;;;;;;;;;6248010;22;20168;-90
2021/07/11 12:24:32;;;;;;;2.67;1.50;;;;;;;;;;6229836;22;20171;-91
2021/07/11 12:27:40;;;;;;;1.90;1.38;;;;;;;;;;6230993;22;20167;-91
2021/07/11 12:30:46;;;;;;;3.70;1.60;;;;;;;;;;6231027;22;20550;-92
2021/07/11 12:34:15;;;;;;;1.67;1.10;;;;;;;;;;6230851;22;20214;-92
2021/07/11 12:37:24;;;;;;;2.03;1.27;;;;;;;;;;6248696;22;20174;-90
2021/07/11 12:40:31;;;;;;;2.20;1.55;;;;;;;;;;6232892;22;20197;-90
2021/07/11 12:43:46;;;;;;;1.85;1.10;;;;;;;;;;6233278;23;20171;-90
2021/07/11 12:46:53;;;;;;;2.25;1.13;;;;;;;;;;6233409;23;20172;-90
2021/07/11 12:50:00;;;;;;;1.48;1.08;;;;;;;;;;6229768;22;20223;-90
2021/07/11 12:53:07;;;;;;;1.30;1.08;;;;;;;;;;6230069;23;20203;-91
2021/07/11 12:56:17;;;;;;;2.28;1.17;;;;;;;;;;6231088;22;20168;-89
2021/07/11 12:59:27;;;;;;;3.17;1.50;;;;;;;;;;6212720;23;20172;-91
2021/07/11 13:05:59;;;;;;;5.28;1.42;;;;;;;;;;6230348;23;20151;-91
2021/07/11 13:09:13;;;;;;;2.70;1.48;;;;;;;;;;6231044;22;20166;-89
2021/07/11 13:12:25;;;;;;;4.03;1.58;;;;;;;;;;6248632;22;20212;-90
2021/07/11 13:15:34;;;;;;;2.13;1.35;;;;;;;;;;6230650;22;20171;-90
2021/07/11 13:18:42;;;;;;;4.05;1.13;;;;;;;;;;6231677;22;20191;-87
2021/07/11 13:21:49;;;;;;;3.13;1.38;;;;;;;;;;6230081;22;20176;-90
2021/07/11 13:24:57;;;;;;;2.22;1.30;;;;;;;;;;6228677;22;20171;-91
2021/07/11 13:28:02;;;;;;;3.63;1.63;;;;;;;;;;6226612;22;20224;-92
2021/07/11 13:31:08;;;;;;;4.15;1.40;;;;;;;;;;6228575;22;20416;-93
2021/07/11 13:34:13;;;;;;;1.58;1.10;;;;;;;;;;6230429;23;20211;-92
2021/07/11 13:37:18;;;;;;;2.15;1.45;;;;;;;;;;6217325;23;20490;-91
2021/07/11 13:40:26;;;;;;;4.85;1.70;;;;;;;;;;6251411;22;20167;-92
2021/07/11 13:43:31;;;;;;;3.80;1.40;;;;;;;;;;6234317;22;20167;-91
2021/07/11 13:46:38;;;;;;;3.42;1.23;;;;;;;;;;6235216;22;20159;-92
2021/07/11 13:49:44;;;;;;;3.35;2.00;;;;;;;;;;6214899;22;20210;-92
2021/07/11 13:52:50;;;;;;;3.65;1.60;;;;;;;;;;6233751;22;20171;-90
2021/07/11 13:56:00;;;;;;;5.38;2.10;;;;;;;;;;6234123;23;20170;-88
2021/07/11 13:59:11;;;;;;;5.95;2.00;;;;;;;;;;6215263;23;20238;-89
2021/07/11 14:02:17;;;;;;;8.73;2.55;;;;;;;;;;6231591;22;20187;-90
2021/07/11 14:05:22;;;;;;;3.88;1.88;;;;;;;;;;6249090;23;20151;-89
2021/07/11 14:08:30;;;;;;;4.70;2.00;;;;;;;;;;6233271;23;20171;-91
2021/07/11 14:11:40;;;;;;;5.10;2.53;;;;;;;;;;6216845;23;20163;-90
2021/07/11 14:14:46;;;;;;;5.75;1.92;;;;;;;;;;6234957;22;20247;-89
2021/07/11 14:17:55;;;;;;;5.32;2.20;;;;;;;;;;6249116;22;20179;-89
2021/07/11 14:21:01;;;;;;;5.30;1.83;;;;;;;;;;6233158;22;20614;-89
2021/07/11 14:24:07;;;;;;;4.75;1.92;;;;;;;;;;6234520;23;20162;-90
2021/07/11 14:27:13;;;;;;;5.18;2.35;;;;;;;;;;6250050;22;20170;-90
2021/07/11 14:30:20;;;;;;;8.32;2.13;;;;;;;;;;6230073;22;20205;-92
2021/07/11 14:33:27;;;;;;;4.43;1.70;;;;;;;;;;6230017;22;20245;-92
2021/07/11 14:36:32;;;;;;;2.97;1.60;;;;;;;;;;6231730;22;20174;-90
2021/07/11 14:39:41;;;;;;;3.22;1.60;;;;;;;;;;6232600;23;20171;-91
2021/07/11 14:42:48;;;;;;;4.78;2.20;;;;;;;;;;6234167;22;20170;-90
2021/07/11 14:45:54;;;;;;;3.72;1.90;;;;;;;;;;6233707;22;20244;-90
2021/07/11 14:48:59;;;;;;;4.18;2.33;;;;;;;;;;6233402;22;20166;-90
2021/07/11 14:52:06;;;;;;;5.53;2.00;;;;;;;;;;6215405;23;20722;-91
2021/07/11 14:55:12;;;;;;;7.60;2.53;;;;;;;;;;6235290;22;20202;-90
2021/07/11 14:58:23;;;;;;;3.85;1.92;;;;;;;;;;6234103;22;20195;-91
2021/07/11 15:01:28;;;;;;;7.70;2.80;;;;;;;;;;6234549;22;20242;-91
2021/07/11 15:04:34;;;;;;;5.90;2.40;;;;;;;;;;6232712;22;20171;-91
2021/07/11 15:07:40;;;;;;;7.25;2.45;;;;;;;;;;6234650;22;20159;-90
2021/07/11 15:10:45;;;;;;;5.03;2.05;;;;;;;;;;6233337;22;20171;-87
2021/07/11 15:13:52;;;;;;;3.38;1.70;;;;;;;;;;6233782;23;20191;-90
2021/07/11 15:16:57;;;;;;;6.60;2.80;;;;;;;;;;6231879;22;20225;-89
2021/07/11 15:20:04;;;;;;;4.30;2.00;;;;;;;;;;6236733;22;20215;-90
2021/07/11 15:23:13;;;;;;;1.73;1.27;;;;;;;;;;6232763;23;20187;-89
2021/07/11 15:26:19;;;;;;;3.85;2.00;;;;;;;;;;6232804;23;20191;-91
2021/07/11 15:29:26;;;;;;;5.88;1.63;;;;;;;;;;6252341;22;20174;-90
2021/07/11 15:32:31;;;;;;;4.28;1.98;;;;;;;;;;6234755;22;20158;-90
2021/07/11 15:35:37;;;;;;;2.33;1.33;;;;;;;;;;6233317;22;20171;-91
2021/07/11 15:38:44;;;;;;;6.00;1.60;;;;;;;;;;6232634;22;20151;-90
2021/07/11 15:41:49;;;;;;;1.73;1.17;;;;;;;;;;6232089;22;20210;-91
2021/07/11 15:44:56;;;;;;;3.03;1.10;;;;;;;;;;6233660;22;20210;-90
2021/07/11 15:48:03;;;;;;;2.08;1.20;;;;;;;;;;6233907;23;20614;-92
2021/07/11 15:51:09;;;;;;;1.42;1.00;;;;;;;;;;6233503;22;20202;-92
2021/07/11 15:54:15;;;;;;;3.70;1.60;;;;;;;;;;6234208;23;20187;-92
2021/07/11 15:57:23;;;;;;;3.20;1.13;;;;;;;;;;6232865;22;20199;-91
2021/07/11 16:00:30;;;;;;;2.30;1.25;;;;;;;;;;6252189;22;20220;-89
2021/07/11 16:03:35;;;;;;;3.65;2.35;;;;;;;;;;6231869;23;20624;-90
2021/07/11 16:06:41;;;;;;;3.85;1.88;;;;;;;;;;6233599;22;20166;-89
2021/07/11 16:09:47;;;;;;;3.80;1.30;;;;;;;;;;6233722;23;20179;-91
2021/07/11 16:12:58;;;;;;;2.58;1.02;;;;;;;;;;6233381;23;20179;-89
2021/07/11 16:16:05;;;;;;;1.83;1.00;;;;;;;;;;6232813;23;20163;-88
2021/07/11 16:19:10;;;;;;;2.67;1.00;;;;;;;;;;6233183;22;20166;-91
2021/07/11 16:22:16;;;;;;;3.28;1.17;;;;;;;;;;6232557;22;20167;-91
2021/07/11 16:25:24;;;;;;;2.63;1.65;;;;;;;;;;6235007;23;20155;-91
2021/07/11 16:28:29;;;;;;;2.70;1.75;;;;;;;;;;6233525;22;20195;-89
2021/07/11 16:31:37;;;;;;;3.22;1.52;;;;;;;;;;6233438;23;20174;-90
2021/07/11 16:34:46;;;;;;;1.80;1.23;;;;;;;;;;6234616;23;20194;-91
2021/07/11 16:38:05;;;;;;;2.63;1.13;;;;;;;;;;6235808;23;20176;-91
2021/07/11 16:41:11;;;;;;;5.65;3.58;;;;;;;;;;6252759;22;20191;-91
2021/07/11 16:44:31;;;;;;;1.08;0.80;;;;;;;;;;6235597;23;20222;-92
2021/07/11 16:47:38;;;;;;;2.05;1.15;;;;;;;;;;6235173;22;20167;-91
2021/07/11 16:50:43;;;;;;;1.42;1.13;;;;;;;;;;6233785;22;20194;-90
2021/07/11 16:53:49;;;;;;;2.35;1.23;;;;;;;;;;6232970;23;20215;-91
2021/07/11 16:56:55;;;;;;;1.55;1.10;;;;;;;;;;6231788;22;20167;-88
2021/07/11 17:00:00;;;;;;;1.33;1.00;;;;;;;;;;6232731;22;20173;-92
2021/07/11 17:03:07;;;;;;;1.63;1.10;;;;;;;;;;6231807;22;20642;-91
2021/07/11 17:06:13;;;;;;;1.45;1.02;;;;;;;;;;6233586;23;20171;-92
2021/07/11 17:09:18;;;;;;;2.78;1.10;;;;;;;;;;6237881;23;20298;-90
2021/07/11 17:15:43;;;;;;;2.45;0.90;;;;;;;;;;6233636;22;20192;-89
2021/07/11 17:18:50;;;;;;;1.23;1.10;;;;;;;;;;6252556;23;20212;-92
2021/07/11 17:21:56;;;;;;;2.83;1.10;;;;;;;;;;6234620;23;20166;-89
2021/07/11 17:25:04;;;;;;;3.85;1.20;;;;;;;;;;6236820;23;20246;-91
2021/07/11 17:28:11;;;;;;;4.07;1.92;;;;;;;;;;6234192;22;20159;-90
2021/07/11 17:31:17;;;;;;;5.20;1.20;;;;;;;;;;6232925;22;20171;-91
2021/07/11 17:34:24;;;;;;;1.70;1.10;;;;;;;;;;6233465;22;20190;-89
2021/07/11 17:37:29;;;;;;;4.00;2.70;;;;;;;;;;6232936;22;20230;-89
2021/07/11 17:40:34;;;;;;;1.50;1.02;;;;;;;;;;6232993;22;20171;-91
2021/07/11 17:43:40;;;;;;;2.03;1.10;;;;;;;;;;6233131;23;20267;-89
2021/07/11 17:46:49;;;;;;;1.88;1.10;;;;;;;;;;6232924;22;20314;-91
2021/07/11 17:49:56;;;;;;;3.42;1.60;;;;;;;;;;6234415;23;20174;-90
2021/07/11 17:53:02;;;;;;;1.45;1.10;;;;;;;;;;6234552;22;20504;-92
2021/07/11 17:56:07;;;;;;;5.18;1.73;;;;;;;;;;6234299;23;20258;-93
2021/07/11 17:59:13;;;;;;;2.03;1.33;;;;;;;;;;6251453;23;20175;-87
2021/07/11 18:02:18;;;;;;;1.27;1.10;;;;;;;;;;6232639;23;20610;-90
2021/07/11 18:05:34;;;;;;;4.07;1.38;;;;;;;;;;6232174;23;20174;-91
2021/07/11 18:08:39;;;;;;;3.85;1.30;;;;;;;;;;6232320;22;20171;-92
2021/07/11 18:11:45;;;;;;;2.05;1.23;;;;;;;;;;6232390;22;20493;-91
2021/07/11 18:14:50;;;;;;;4.60;1.40;;;;;;;;;;6231258;22;20297;-90
2021/07/11 18:17:56;;;;;;;1.77;1.00;;;;;;;;;;6231324;23;20190;-92
2021/07/11 18:21:03;;;;;;;2.05;1.30;;;;;;;;;;6233150;22;20166;-89
2021/07/11 18:24:09;;;;;;;2.40;1.30;;;;;;;;;;6232961;22;20150;-90
2021/07/11 18:27:14;;;;;;;1.52;0.93;;;;;;;;;;6251588;23;20167;-90
2021/07/11 18:30:20;;;;;;;3.72;1.48;;;;;;;;;;6232267;22;20219;-91
2021/07/11 18:33:29;;;;;;;2.70;1.20;;;;;;;;;;6233297;22;20154;-91
2021/07/11 18:36:36;;;;;;;5.93;1.92;;;;;;;;;;6234212;22;20162;-90
2021/07/11 18:39:43;;;;;;;3.20;1.98;;;;;;;;;;6234704;22;20191;-92
2021/07/11 18:42:48;;;;;;;3.00;1.80;;;;;;;;;;6252377;23;20167;-90
2021/07/11 18:45:55;;;;;;;8.75;2.72;;;;;;;;;;6251997;22;20230;-91
2021/07/11 18:49:01;;;;;;;7.18;1.90;;;;;;;;;;6235590;22;20171;-89
2021/07/11 18:52:10;;;;;;;4.05;1.40;;;;;;;;;;6233989;22;20289;-89